Terminal Aerodrome Forecast
Issued by NWS

Home | Current Version | Previous Version | Text Only | Print | Product List | Glossary On
Versions: 1 2 3 4 5 6 7 8 9 10 11 12 13 14 15 16 17
733
FTUS42 KFFC 252330
TAFPDK
TAF
KPDK 252330Z 2600/2624 09002KT P6SM SCT050 SCT250
     FM261500 05005KT P6SM SCT045 PROB30 2619/2623 4SM TSRA BR
      BKN035CB=

USA.gov is the U.S. government's official web portal to all federal, state and local government web resources and services.